createdAt,value
2018-11-20T00:00:37.017Z,4.10
2018-11-20T00:03:31.556Z,4.10
2018-11-20T00:06:31.640Z,4.10
2018-11-20T00:09:18.692Z,4.10
2018-11-20T00:12:09.917Z,4.20
2018-11-20T00:15:00.981Z,4.20
2018-11-20T00:17:38.101Z,4.20
2018-11-20T00:20:22.632Z,4.20
2018-11-20T00:23:10.950Z,4.20
2018-11-20T00:26:08.514Z,4.20
2018-11-20T00:28:48.062Z,4.20
2018-11-20T00:31:34.542Z,4.10
2018-11-20T00:34:13.234Z,4.10
2018-11-20T00:36:53.820Z,4.10
2018-11-20T00:40:00.555Z,4.20
2018-11-20T00:43:06.713Z,4.20
2018-11-20T00:46:12.703Z,4.20
2018-11-20T00:48:59.584Z,4.20
2018-11-20T00:51:41.671Z,4.20
2018-11-20T00:54:39.032Z,4.20
2018-11-20T00:57:26.137Z,4.30
2018-11-20T01:00:26.729Z,4.30
2018-11-20T01:03:10.047Z,4.30
2018-11-20T01:06:00.941Z,4.30
2018-11-20T01:08:38.143Z,4.30
2018-11-20T01:11:26.492Z,4.30
2018-11-20T01:14:20.849Z,4.30
2018-11-20T01:17:12.745Z,4.30
2018-11-20T01:20:01.026Z,4.20
2018-11-20T01:23:00.937Z,4.20
2018-11-20T01:25:47.839Z,4.10
2018-11-20T01:28:36.122Z,4.00
2018-11-20T01:31:27.244Z,3.90
2018-11-20T01:34:13.024Z,3.90
2018-11-20T01:37:01.607Z,3.80
2018-11-20T01:39:58.748Z,3.80
2018-11-20T01:43:02.414Z,3.70
2018-11-20T01:45:53.751Z,3.70
2018-11-20T01:48:34.396Z,3.60
2018-11-20T01:51:28.081Z,3.60
2018-11-20T01:54:10.372Z,3.50
2018-11-20T01:56:57.266Z,3.50
2018-11-20T01:59:54.508Z,3.40
2018-11-20T02:02:40.950Z,3.40
2018-11-20T02:05:41.270Z,3.40
2018-11-20T02:08:38.654Z,3.30
2018-11-20T02:11:29.058Z,3.30
2018-11-20T02:14:29.158Z,3.30
2018-11-20T02:17:32.081Z,3.20
2018-11-20T02:20:29.303Z,3.20
2018-11-20T02:23:35.645Z,3.30
2018-11-20T02:26:39.176Z,3.30
2018-11-20T02:29:39.427Z,3.30
2018-11-20T02:32:27.719Z,3.30
2018-11-20T02:35:33.882Z,3.40
2018-11-20T02:38:25.948Z,3.40
2018-11-20T02:41:02.052Z,3.40
2018-11-20T02:43:42.325Z,3.40
2018-11-20T02:46:30.167Z,3.40
2018-11-20T02:49:24.440Z,3.50
2018-11-20T02:52:07.951Z,3.40
2018-11-20T02:54:55.165Z,3.40
2018-11-20T02:57:55.176Z,3.40
2018-11-20T03:00:46.368Z,3.40
2018-11-20T03:03:43.402Z,3.40
2018-11-20T03:06:33.348Z,3.40
2018-11-20T03:09:24.403Z,3.30
2018-11-20T03:12:11.479Z,3.40
2018-11-20T03:14:51.839Z,3.40
2018-11-20T03:17:38.650Z,3.40
2018-11-20T03:20:15.388Z,3.40
2018-11-20T03:23:06.392Z,3.40
2018-11-20T03:26:07.931Z,3.40
2018-11-20T03:28:59.059Z,3.40
2018-11-20T03:31:38.389Z,3.40
2018-11-20T03:34:41.739Z,3.40
2018-11-20T03:37:29.592Z,3.50
2018-11-20T03:40:16.546Z,3.50
2018-11-20T03:43:04.833Z,3.50
2018-11-20T03:45:51.480Z,3.60
2018-11-20T03:48:38.226Z,3.50
2018-11-20T03:51:27.177Z,3.60
2018-11-20T03:54:09.714Z,3.60
2018-11-20T03:56:56.359Z,3.60
2018-11-20T03:59:43.223Z,3.60
2018-11-20T04:02:34.141Z,3.60
2018-11-20T04:05:24.814Z,3.60
2018-11-20T04:08:11.756Z,3.60
2018-11-20T04:11:00.373Z,3.60
2018-11-20T04:13:37.625Z,3.60
2018-11-20T04:16:22.821Z,3.70
2018-11-20T04:19:23.416Z,3.70
2018-11-20T04:22:12.295Z,3.70
2018-11-20T04:25:03.469Z,3.70
2018-11-20T04:27:58.903Z,3.70
2018-11-20T04:31:35.462Z,3.70
2018-11-20T04:34:23.764Z,3.70
2018-11-20T04:37:38.325Z,3.80
2018-11-20T04:40:45.532Z,3.80
2018-11-20T04:43:39.454Z,3.80
2018-11-20T04:46:26.242Z,3.80
2018-11-20T04:49:17.419Z,3.80
2018-11-20T04:52:01.688Z,3.80
2018-11-20T04:54:39.370Z,3.80
2018-11-20T04:57:26.266Z,3.80
2018-11-20T05:00:13.083Z,3.80
2018-11-20T05:03:00.237Z,3.90
2018-11-20T05:05:48.956Z,3.90
2018-11-20T05:08:31.020Z,3.90
2018-11-20T05:11:17.693Z,3.90
2018-11-20T05:14:04.610Z,3.90
2018-11-20T05:16:51.625Z,3.90
2018-11-20T05:19:34.649Z,3.90
2018-11-20T05:22:21.412Z,3.90
2018-11-20T05:25:09.120Z,3.90
2018-11-20T05:28:00.132Z,3.90
2018-11-20T05:31:00.161Z,3.90
2018-11-20T05:34:06.469Z,3.90
2018-11-20T05:36:53.138Z,3.90
2018-11-20T05:39:44.389Z,3.90
2018-11-20T05:42:21.238Z,4.00
2018-11-20T05:45:07.068Z,3.90
2018-11-20T05:47:53.982Z,3.90
2018-11-20T05:50:45.344Z,4.00
2018-11-20T05:53:26.798Z,4.00
2018-11-20T05:56:10.449Z,4.00
2018-11-20T05:59:16.676Z,4.00
2018-11-20T06:02:10.623Z,4.00
2018-11-20T06:04:58.913Z,4.00
2018-11-20T06:07:51.326Z,4.00
2018-11-20T06:10:45.711Z,4.10
2018-11-20T06:13:33.955Z,4.10
2018-11-20T06:16:28.131Z,4.10
2018-11-20T06:19:15.338Z,4.00
2018-11-20T06:22:03.192Z,4.00
2018-11-20T06:24:38.921Z,4.00
2018-11-20T06:27:22.641Z,4.00
2018-11-20T06:30:13.454Z,4.00
2018-11-20T06:32:57.482Z,4.00
2018-11-20T06:35:44.245Z,4.00
2018-11-20T06:38:27.397Z,4.00
2018-11-20T06:41:14.164Z,4.00
2018-11-20T06:44:14.461Z,3.90
2018-11-20T06:47:01.438Z,3.90
2018-11-20T06:49:56.542Z,3.90
2018-11-20T06:52:45.630Z,3.90
2018-11-20T06:55:45.797Z,3.90
2018-11-20T06:58:32.754Z,3.90
2018-11-20T07:02:53.651Z,3.90
2018-11-20T07:05:43.700Z,3.90
2018-11-20T07:08:43.776Z,3.90
2018-11-20T07:11:30.540Z,3.90
2018-11-20T07:14:14.971Z,3.90
2018-11-20T07:17:12.361Z,3.90
2018-11-20T07:19:58.274Z,3.90
2018-11-20T07:22:36.542Z,3.90
2018-11-20T07:25:33.285Z,3.90
2018-11-20T07:28:19.540Z,3.90
2018-11-20T07:31:26.658Z,3.90
2018-11-20T07:34:22.973Z,3.90
2018-11-20T07:37:16.351Z,3.90
2018-11-20T07:40:02.308Z,3.90
2018-11-20T07:42:48.870Z,3.90
2018-11-20T07:45:34.743Z,4.00
2018-11-20T07:48:31.680Z,3.90
2018-11-20T07:51:17.941Z,4.00
2018-11-20T07:54:23.758Z,4.00
2018-11-20T07:57:14.208Z,4.00
2018-11-20T08:00:16.652Z,4.00
2018-11-20T08:03:02.020Z,4.00
2018-11-20T08:05:52.169Z,4.00
2018-11-20T08:08:31.966Z,4.00
2018-11-20T08:11:22.211Z,4.00
2018-11-20T08:14:02.383Z,4.00
2018-11-20T08:16:47.461Z,4.00
2018-11-20T08:19:43.360Z,4.00
2018-11-20T08:22:30.883Z,4.00
2018-11-20T08:25:30.451Z,4.00
2018-11-20T08:28:09.905Z,4.00
2018-11-20T08:31:12.985Z,4.10
2018-11-20T08:33:59.123Z,4.10
2018-11-20T08:36:45.218Z,4.10
2018-11-20T08:39:31.401Z,4.10
2018-11-20T08:42:28.001Z,4.10
2018-11-20T08:45:18.248Z,4.10
2018-11-20T08:48:04.190Z,4.00
2018-11-20T08:50:39.261Z,4.00
2018-11-20T08:53:20.426Z,4.00
2018-11-20T08:56:10.805Z,4.00
2018-11-20T08:59:10.250Z,3.90
2018-11-20T09:02:03.672Z,4.00
2018-11-20T09:04:49.575Z,3.90
2018-11-20T09:07:34.912Z,3.90
2018-11-20T09:10:31.307Z,3.90
2018-11-20T09:13:18.856Z,3.80
2018-11-20T09:16:09.036Z,3.80
2018-11-20T09:19:08.567Z,3.80
2018-11-20T09:21:46.960Z,3.80
2018-11-20T09:24:32.987Z,3.80
2018-11-20T09:27:21.072Z,3.80
2018-11-20T09:30:07.231Z,3.90
2018-11-20T09:32:54.673Z,3.80
2018-11-20T09:35:41.415Z,3.80
2018-11-20T09:38:28.724Z,3.80
2018-11-20T09:41:14.555Z,3.80
2018-11-20T09:44:26.366Z,3.80
2018-11-20T09:47:19.624Z,3.90
2018-11-20T09:50:09.646Z,3.80
2018-11-20T09:52:55.492Z,3.90
2018-11-20T09:55:41.291Z,3.90
2018-11-20T09:58:27.164Z,3.90
2018-11-20T10:01:12.727Z,3.90
2018-11-20T10:04:02.501Z,4.00
2018-11-20T10:07:08.776Z,4.00
2018-11-20T10:09:45.790Z,4.00
2018-11-20T10:12:39.145Z,4.00
2018-11-20T10:15:25.694Z,4.00
2018-11-20T10:18:28.039Z,4.00
2018-11-20T10:21:10.322Z,4.10
2018-11-20T10:24:10.014Z,4.10
2018-11-20T10:26:53.656Z,4.00
2018-11-20T10:29:46.895Z,4.00
2018-11-20T10:32:33.975Z,4.10
2018-11-20T10:35:36.695Z,4.10
2018-11-20T10:38:30.304Z,4.10
2018-11-20T10:41:23.750Z,4.10
2018-11-20T10:44:09.382Z,4.10
2018-11-20T10:47:05.548Z,4.00
2018-11-20T10:49:51.649Z,4.10
2018-11-20T10:52:36.951Z,4.10
2018-11-20T10:55:27.473Z,4.10
2018-11-20T10:58:20.933Z,4.10
2018-11-20T11:01:06.886Z,4.10
2018-11-20T11:03:53.004Z,4.10
2018-11-20T11:06:49.506Z,4.10
2018-11-20T11:09:19.820Z,4.10
2018-11-20T11:12:11.939Z,4.10
2018-11-20T11:14:59.373Z,4.10
2018-11-20T11:17:45.646Z,4.00
2018-11-20T11:20:36.295Z,4.10
2018-11-20T11:23:22.384Z,4.10
2018-11-20T11:26:21.824Z,4.00
2018-11-20T11:29:08.068Z,4.00
2018-11-20T11:31:54.279Z,4.00
2018-11-20T11:34:41.762Z,4.00
2018-11-20T11:37:34.579Z,3.90
2018-11-20T11:40:27.654Z,3.90
2018-11-20T11:43:15.934Z,3.90
2018-11-20T11:46:21.511Z,3.90
2018-11-20T11:49:26.839Z,3.90
2018-11-20T11:52:03.857Z,3.90
2018-11-20T11:55:06.592Z,3.80
2018-11-20T11:57:44.730Z,3.90
2018-11-20T12:00:41.268Z,3.80
2018-11-20T12:03:31.307Z,3.80
2018-11-20T12:06:17.356Z,3.90
2018-11-20T12:09:15.227Z,3.90
2018-11-20T12:12:10.674Z,3.90
2018-11-20T12:15:03.912Z,3.90
2018-11-20T12:17:59.273Z,3.90
2018-11-20T12:20:49.821Z,3.90
2018-11-20T12:23:35.976Z,3.90
2018-11-20T12:26:38.460Z,4.00
2018-11-20T12:29:14.826Z,3.90
2018-11-20T12:32:08.495Z,3.90
2018-11-20T12:34:54.375Z,3.90
2018-11-20T12:37:43.640Z,3.90
2018-11-20T12:40:20.354Z,3.90
2018-11-20T12:43:01.185Z,3.90
2018-11-20T12:46:04.450Z,3.90
2018-11-20T12:48:56.303Z,3.90
2018-11-20T12:51:40.790Z,4.00
2018-11-20T12:54:29.809Z,3.90
2018-11-20T12:57:30.485Z,3.90
2018-11-20T13:00:21.588Z,3.90
2018-11-20T13:03:12.073Z,3.90
2018-11-20T13:05:59.588Z,3.90
2018-11-20T13:08:46.492Z,3.90
2018-11-20T13:11:36.693Z,3.90
2018-11-20T13:14:27.031Z,3.90
2018-11-20T13:17:06.984Z,3.90
2018-11-20T13:19:50.048Z,3.80
2018-11-20T13:22:43.511Z,3.90
2018-11-20T13:25:21.928Z,3.90
2018-11-20T13:28:08.004Z,3.90
2018-11-20T13:30:54.515Z,3.90
2018-11-20T13:33:40.579Z,3.90
2018-11-20T13:36:26.980Z,3.90
2018-11-20T13:39:15.374Z,3.90
2018-11-20T13:41:51.893Z,3.90
2018-11-20T13:44:45.377Z,3.90
2018-11-20T13:47:31.997Z,3.90
2018-11-20T13:50:24.762Z,3.90
2018-11-20T13:53:11.946Z,3.90
2018-11-20T13:56:01.403Z,3.90
2018-11-20T13:59:00.892Z,3.90
2018-11-20T14:01:48.388Z,3.90
2018-11-20T14:04:38.621Z,3.90
2018-11-20T14:07:25.044Z,3.90
2018-11-20T14:10:18.351Z,3.90
2018-11-20T14:13:04.214Z,3.90
2018-11-20T14:15:51.978Z,3.80
2018-11-20T14:18:45.859Z,3.90
2018-11-20T14:21:45.255Z,3.80
2018-11-20T14:24:35.410Z,3.80
2018-11-20T14:27:34.617Z,3.80
2018-11-20T14:30:22.503Z,3.80
2018-11-20T14:33:12.569Z,3.80
2018-11-20T14:36:12.099Z,3.90
2018-11-20T14:38:59.591Z,3.90
2018-11-20T14:41:47.050Z,3.90
2018-11-20T14:44:24.100Z,3.90
2018-11-20T14:47:10.523Z,3.80
2018-11-20T14:50:00.770Z,3.80
2018-11-20T14:52:46.692Z,3.80
2018-11-20T14:55:34.207Z,3.80
2018-11-20T14:58:21.154Z,3.80
2018-11-20T15:01:14.867Z,3.80
2018-11-20T15:04:08.318Z,3.70
2018-11-20T15:06:54.335Z,3.70
2018-11-20T15:09:44.634Z,3.70
2018-11-20T15:12:30.823Z,3.70
2018-11-20T15:15:27.782Z,3.70
2018-11-20T15:18:18.073Z,3.70
2018-11-20T15:21:14.169Z,3.70
2018-11-20T15:24:04.413Z,3.70
2018-11-20T15:26:55.897Z,3.70
2018-11-20T15:29:46.268Z,3.70
2018-11-20T15:32:33.760Z,3.70
2018-11-20T15:35:16.722Z,3.60
2018-11-20T15:38:09.775Z,3.60
2018-11-20T15:40:54.656Z,3.60
2018-11-20T15:43:45.011Z,3.60
2018-11-20T15:46:34.589Z,3.60
2018-11-20T15:49:36.907Z,3.60
2018-11-20T15:52:30.542Z,3.60
2018-11-20T15:55:16.335Z,3.60
2018-11-20T15:58:05.200Z,3.60
2018-11-20T16:00:51.180Z,3.60
2018-11-20T16:03:36.997Z,3.60
2018-11-20T16:06:24.599Z,3.60
2018-11-20T16:09:11.190Z,3.60
2018-11-20T16:12:04.589Z,3.60
2018-11-20T16:14:54.669Z,3.60
2018-11-20T16:17:44.953Z,3.60
2018-11-20T16:20:35.195Z,3.60
2018-11-20T16:23:21.455Z,3.60
2018-11-20T16:26:03.168Z,3.60
2018-11-20T16:28:51.230Z,3.60
2018-11-20T16:31:37.385Z,3.60
2018-11-20T16:34:25.712Z,3.60
2018-11-20T16:37:13.248Z,3.60
2018-11-20T16:40:43.341Z,3.60
2018-11-20T16:43:48.791Z,3.60
2018-11-20T16:46:54.263Z,3.60
2018-11-20T16:49:40.437Z,3.60
2018-11-20T16:52:26.904Z,3.60
2018-11-20T16:55:13.101Z,3.60
2018-11-20T16:57:56.378Z,3.60
2018-11-20T17:00:47.250Z,3.60
2018-11-20T17:03:37.576Z,3.60
2018-11-20T17:06:24.425Z,3.60
2018-11-20T17:09:19.782Z,3.60
2018-11-20T17:12:07.609Z,3.60
2018-11-20T17:14:58.173Z,3.60
2018-11-20T17:17:54.222Z,3.60
2018-11-20T17:20:37.267Z,3.60
2018-11-20T17:23:23.678Z,3.60
2018-11-20T17:26:14.546Z,3.60
2018-11-20T17:29:04.768Z,3.60
2018-11-20T17:32:07.599Z,3.60
2018-11-20T17:34:50.177Z,3.60
2018-11-20T17:37:43.623Z,3.60
2018-11-20T17:40:37.056Z,3.60
2018-11-20T17:43:42.715Z,3.60
2018-11-20T17:46:39.200Z,3.60
2018-11-20T17:49:18.711Z,3.60
2018-11-20T17:52:06.236Z,3.60
2018-11-20T17:55:02.812Z,3.60
2018-11-20T17:57:57.138Z,3.60
2018-11-20T18:00:46.804Z,3.60
2018-11-20T18:03:32.882Z,3.60
2018-11-20T18:06:11.054Z,3.60
2018-11-20T18:08:57.382Z,3.60
2018-11-20T18:11:45.278Z,3.60
2018-11-20T18:14:31.284Z,3.60
2018-11-20T18:17:21.797Z,3.60
2018-11-20T18:20:15.073Z,3.60
2018-11-20T18:23:04.571Z,3.60
2018-11-20T18:26:01.317Z,3.60
2018-11-20T18:28:47.682Z,3.60
2018-11-20T18:31:41.194Z,3.60
2018-11-20T18:34:27.479Z,3.60
2018-11-20T18:37:17.819Z,3.60
2018-11-20T18:40:14.266Z,3.70
2018-11-20T18:43:02.266Z,3.60
2018-11-20T18:45:43.692Z,3.60
2018-11-20T18:48:34.347Z,3.60
2018-11-20T18:51:22.401Z,3.60
2018-11-20T18:54:10.191Z,3.60
2018-11-20T18:56:58.535Z,3.70
2018-11-20T18:59:44.428Z,3.60
2018-11-20T19:02:34.447Z,3.60
2018-11-20T19:05:20.546Z,3.60
2018-11-20T19:08:20.460Z,3.60
2018-11-20T19:11:10.659Z,3.60
2018-11-20T19:14:01.216Z,3.60
2018-11-20T19:16:52.924Z,3.60
2018-11-20T19:19:43.010Z,3.60
2018-11-20T19:22:33.142Z,3.60
2018-11-20T19:25:26.404Z,3.60
2018-11-20T19:28:12.579Z,3.50
2018-11-20T19:31:05.600Z,3.50
2018-11-20T19:34:05.092Z,3.50
2018-11-20T19:36:58.373Z,3.50
2018-11-20T19:39:46.808Z,3.40
2018-11-20T19:42:33.128Z,3.40
2018-11-20T19:45:32.681Z,3.30
2018-11-20T19:48:11.438Z,3.30
2018-11-20T19:50:57.957Z,3.20
2018-11-20T19:53:44.633Z,3.30
2018-11-20T19:56:30.994Z,3.30
2018-11-20T19:59:14.177Z,3.20
2018-11-20T20:02:01.881Z,3.30
2018-11-20T20:04:48.449Z,3.20
2018-11-20T20:07:38.973Z,3.20
2018-11-20T20:10:30.901Z,3.20
2018-11-20T20:13:11.897Z,3.10
2018-11-20T20:19:25.912Z,3.10
2018-11-20T20:22:19.297Z,3.10
2018-11-20T20:25:01.396Z,3.10
2018-11-20T20:27:54.254Z,3.10
2018-11-20T20:30:54.029Z,3.10
2018-11-20T20:33:41.958Z,3.10
2018-11-20T20:36:29.570Z,3.10
2018-11-20T20:39:15.628Z,3.00
2018-11-20T20:42:20.809Z,3.00
2018-11-20T20:45:10.376Z,3.00
2018-11-20T20:48:01.772Z,3.00
2018-11-20T20:50:49.159Z,3.00
2018-11-20T20:53:38.476Z,3.00
2018-11-20T20:56:22.973Z,3.00
2018-11-20T20:59:16.921Z,3.00
2018-11-20T21:02:22.815Z,3.00
2018-11-20T21:05:19.394Z,3.00
2018-11-20T21:08:10.040Z,3.00
2018-11-20T21:10:57.669Z,3.00
2018-11-20T21:14:03.759Z,3.00
2018-11-20T21:17:06.362Z,3.00
2018-11-20T21:19:57.111Z,3.00
2018-11-20T21:22:56.852Z,3.00
2018-11-20T21:25:56.311Z,3.00
2018-11-20T21:28:42.708Z,3.10
2018-11-20T21:31:36.004Z,3.00
2018-11-20T21:34:33.084Z,3.00
2018-11-20T21:37:41.336Z,3.00
2018-11-20T21:40:34.692Z,3.00
2018-11-20T21:43:25.088Z,3.00
2018-11-20T21:46:24.765Z,3.00
2018-11-20T21:49:10.888Z,3.00
2018-11-20T21:52:04.201Z,3.00
2018-11-20T21:54:42.681Z,3.00
2018-11-20T21:57:37.759Z,3.00
2018-11-20T22:00:30.766Z,3.00
2018-11-20T22:03:30.355Z,3.00
2018-11-20T22:06:13.267Z,3.10
2018-11-20T22:08:59.219Z,3.10
2018-11-20T22:11:46.764Z,3.10
2018-11-20T22:14:31.844Z,3.10
2018-11-20T22:17:18.230Z,3.10
2018-11-20T22:20:04.318Z,3.10
2018-11-20T22:22:49.916Z,3.10
2018-11-20T22:25:40.495Z,3.10
2018-11-20T22:28:27.059Z,3.10
2018-11-20T22:31:12.644Z,3.20
2018-11-20T22:34:05.935Z,3.10
2018-11-20T22:36:53.007Z,3.20
2018-11-20T22:39:40.530Z,3.20
2018-11-20T22:42:21.786Z,3.20
2018-11-20T22:45:09.295Z,3.20
2018-11-20T22:47:51.892Z,3.20
2018-11-20T22:50:37.759Z,3.20
2018-11-20T22:53:27.982Z,3.20
2018-11-20T22:56:18.228Z,3.30
2018-11-20T22:59:13.292Z,3.30
2018-11-20T23:02:06.335Z,3.30
2018-11-20T23:04:54.518Z,3.30
2018-11-20T23:08:00.306Z,3.30
2018-11-20T23:10:29.268Z,3.30
2018-11-20T23:12:57.541Z,3.30
2018-11-20T23:15:25.878Z,3.40
2018-11-20T23:17:54.204Z,3.40
2018-11-20T23:20:22.472Z,3.40
2018-11-20T23:22:50.824Z,3.50
2018-11-20T23:25:19.067Z,3.50
2018-11-20T23:27:47.628Z,3.50
2018-11-20T23:30:16.534Z,3.50
2018-11-20T23:32:44.880Z,3.50
2018-11-20T23:35:13.604Z,3.50
2018-11-20T23:37:42.599Z,3.50
2018-11-20T23:40:12.129Z,3.60
2018-11-20T23:42:40.450Z,3.60
2018-11-20T23:45:10.914Z,3.60
2018-11-20T23:47:39.178Z,3.60
2018-11-20T23:50:09.322Z,3.60
2018-11-20T23:52:37.747Z,3.60
2018-11-20T23:55:08.110Z,3.70
2018-11-20T23:57:36.365Z,3.60
